sensor_id;sensor_type;location;lat;lon;timestamp;P1;durP1;ratioP1;P2;durP2;ratioP2
71360;SDS011;59166;48.908;1.870;2023-04-02T00:07:30;10.25;;;3.63;;
71360;SDS011;59166;48.908;1.870;2023-04-02T00:12:31;11.57;;;3.80;;
71360;SDS011;59166;48.908;1.870;2023-04-02T00:17:32;11.30;;;3.90;;
71360;SDS011;59166;48.908;1.870;2023-04-02T00:22:35;11.27;;;3.67;;
71360;SDS011;59166;48.908;1.870;2023-04-02T00:27:43;11.48;;;3.22;;
71360;SDS011;59166;48.908;1.870;2023-04-02T00:32:45;10.60;;;3.40;;
71360;SDS011;59166;48.908;1.870;2023-04-02T00:37:48;10.82;;;3.58;;
71360;SDS011;59166;48.908;1.870;2023-04-02T00:42:51;9.40;;;3.20;;
71360;SDS011;59166;48.908;1.870;2023-04-02T00:47:55;10.43;;;3.13;;
71360;SDS011;59166;48.908;1.870;2023-04-02T00:53:23;11.43;;;2.97;;
71360;SDS011;59166;48.908;1.870;2023-04-02T00:58:27;11.38;;;3.50;;
71360;SDS011;59166;48.908;1.870;2023-04-02T01:03:32;11.00;;;4.05;;
71360;SDS011;59166;48.908;1.870;2023-04-02T01:14:02;16.75;;;6.00;;
71360;SDS011;59166;48.908;1.870;2023-04-02T01:19:16;16.40;;;5.88;;
71360;SDS011;59166;48.908;1.870;2023-04-02T01:24:39;15.07;;;4.40;;
71360;SDS011;59166;48.908;1.870;2023-04-02T01:29:43;10.88;;;3.85;;
71360;SDS011;59166;48.908;1.870;2023-04-02T01:34:48;8.63;;;2.55;;
71360;SDS011;59166;48.908;1.870;2023-04-02T01:39:57;10.97;;;3.50;;
71360;SDS011;59166;48.908;1.870;2023-04-02T01:45:24;8.23;;;2.77;;
71360;SDS011;59166;48.908;1.870;2023-04-02T01:50:26;9.05;;;2.90;;
71360;SDS011;59166;48.908;1.870;2023-04-02T01:55:30;8.77;;;2.70;;
71360;SDS011;59166;48.908;1.870;2023-04-02T02:00:35;9.30;;;2.60;;
71360;SDS011;59166;48.908;1.870;2023-04-02T02:05:40;7.18;;;2.50;;
71360;SDS011;59166;48.908;1.870;2023-04-02T02:10:42;9.07;;;2.50;;
71360;SDS011;59166;48.908;1.870;2023-04-02T02:15:44;9.23;;;2.63;;
71360;SDS011;59166;48.908;1.870;2023-04-02T02:20:45;8.30;;;2.47;;
71360;SDS011;59166;48.908;1.870;2023-04-02T02:25:46;6.93;;;2.07;;
71360;SDS011;59166;48.908;1.870;2023-04-02T02:30:49;10.00;;;2.45;;
71360;SDS011;59166;48.908;1.870;2023-04-02T02:35:52;8.68;;;2.40;;
71360;SDS011;59166;48.908;1.870;2023-04-02T02:40:57;8.30;;;2.27;;
71360;SDS011;59166;48.908;1.870;2023-04-02T02:46:03;6.70;;;2.10;;
71360;SDS011;59166;48.908;1.870;2023-04-02T02:51:07;10.65;;;2.25;;
71360;SDS011;59166;48.908;1.870;2023-04-02T02:56:16;8.47;;;1.93;;
71360;SDS011;59166;48.908;1.870;2023-04-02T03:01:20;6.03;;;2.00;;
71360;SDS011;59166;48.908;1.870;2023-04-02T03:06:21;6.38;;;1.80;;
71360;SDS011;59166;48.908;1.870;2023-04-02T03:11:23;5.65;;;1.60;;
71360;SDS011;59166;48.908;1.870;2023-04-02T03:16:30;6.20;;;1.47;;
71360;SDS011;59166;48.908;1.870;2023-04-02T03:21:36;4.90;;;1.52;;
71360;SDS011;59166;48.908;1.870;2023-04-02T03:26:41;5.15;;;1.40;;
71360;SDS011;59166;48.908;1.870;2023-04-02T03:31:49;3.77;;;1.20;;
71360;SDS011;59166;48.908;1.870;2023-04-02T03:36:56;3.53;;;0.95;;
71360;SDS011;59166;48.908;1.870;2023-04-02T03:42:02;4.15;;;1.20;;
71360;SDS011;59166;48.908;1.870;2023-04-02T03:47:11;4.43;;;1.20;;
71360;SDS011;59166;48.908;1.870;2023-04-02T03:52:19;4.97;;;1.30;;
71360;SDS011;59166;48.908;1.870;2023-04-02T03:57:24;4.43;;;1.05;;
71360;SDS011;59166;48.908;1.870;2023-04-02T04:02:37;3.88;;;1.15;;
71360;SDS011;59166;48.908;1.870;2023-04-02T04:07:41;2.57;;;0.80;;
71360;SDS011;59166;48.908;1.870;2023-04-02T04:12:45;4.60;;;1.50;;
71360;SDS011;59166;48.908;1.870;2023-04-02T04:17:50;5.05;;;1.45;;
71360;SDS011;59166;48.908;1.870;2023-04-02T04:23:00;6.17;;;1.50;;
71360;SDS011;59166;48.908;1.870;2023-04-02T04:28:09;5.70;;;1.60;;
71360;SDS011;59166;48.908;1.870;2023-04-02T04:33:21;6.72;;;2.17;;
71360;SDS011;59166;48.908;1.870;2023-04-02T04:38:26;9.37;;;2.60;;
71360;SDS011;59166;48.908;1.870;2023-04-02T04:43:33;9.43;;;3.67;;
71360;SDS011;59166;48.908;1.870;2023-04-02T04:48:47;10.90;;;3.58;;
71360;SDS011;59166;48.908;1.870;2023-04-02T04:53:53;11.32;;;3.80;;
71360;SDS011;59166;48.908;1.870;2023-04-02T04:58:55;11.30;;;4.07;;
71360;SDS011;59166;48.908;1.870;2023-04-02T05:04:03;12.43;;;4.07;;
71360;SDS011;59166;48.908;1.870;2023-04-02T05:09:12;12.52;;;3.50;;
71360;SDS011;59166;48.908;1.870;2023-04-02T05:14:21;12.33;;;4.23;;
71360;SDS011;59166;48.908;1.870;2023-04-02T05:19:31;10.32;;;3.25;;
71360;SDS011;59166;48.908;1.870;2023-04-02T05:24:41;11.07;;;3.45;;
71360;SDS011;59166;48.908;1.870;2023-04-02T05:29:49;13.50;;;4.53;;
71360;SDS011;59166;48.908;1.870;2023-04-02T05:34:57;6.13;;;2.75;;
71360;SDS011;59166;48.908;1.870;2023-04-02T05:39:59;10.80;;;3.65;;
71360;SDS011;59166;48.908;1.870;2023-04-02T05:45:14;12.40;;;3.67;;
71360;SDS011;59166;48.908;1.870;2023-04-02T05:50:27;13.13;;;4.10;;
71360;SDS011;59166;48.908;1.870;2023-04-02T06:00:53;16.83;;;4.30;;
71360;SDS011;59166;48.908;1.870;2023-04-02T06:06:34;12.77;;;4.63;;
71360;SDS011;59166;48.908;1.870;2023-04-02T06:11:44;16.30;;;4.57;;
71360;SDS011;59166;48.908;1.870;2023-04-02T06:16:48;15.80;;;4.63;;
71360;SDS011;59166;48.908;1.870;2023-04-02T06:21:50;14.07;;;4.90;;
71360;SDS011;59166;48.908;1.870;2023-04-02T06:26:58;11.68;;;3.90;;
71360;SDS011;59166;48.908;1.870;2023-04-02T06:32:03;12.50;;;4.25;;
71360;SDS011;59166;48.908;1.870;2023-04-02T06:37:12;16.43;;;4.37;;
71360;SDS011;59166;48.908;1.870;2023-04-02T06:42:19;11.25;;;4.10;;
71360;SDS011;59166;48.908;1.870;2023-04-02T06:47:25;12.15;;;4.15;;
71360;SDS011;59166;48.908;1.870;2023-04-02T06:52:33;7.47;;;2.77;;
71360;SDS011;59166;48.908;1.870;2023-04-02T06:57:37;9.27;;;3.00;;
71360;SDS011;59166;48.908;1.870;2023-04-02T07:02:38;9.48;;;3.50;;
71360;SDS011;59166;48.908;1.870;2023-04-02T07:07:41;12.50;;;3.57;;
71360;SDS011;59166;48.908;1.870;2023-04-02T07:12:42;12.07;;;3.10;;
71360;SDS011;59166;48.908;1.870;2023-04-02T07:17:43;7.75;;;2.42;;
71360;SDS011;59166;48.908;1.870;2023-04-02T07:22:45;10.03;;;3.10;;
71360;SDS011;59166;48.908;1.870;2023-04-02T07:27:46;8.95;;;3.38;;
71360;SDS011;59166;48.908;1.870;2023-04-02T07:32:47;11.73;;;3.20;;
71360;SDS011;59166;48.908;1.870;2023-04-02T07:37:49;8.73;;;3.00;;
71360;SDS011;59166;48.908;1.870;2023-04-02T07:42:50;9.45;;;3.53;;
71360;SDS011;59166;48.908;1.870;2023-04-02T07:47:50;10.77;;;3.17;;
71360;SDS011;59166;48.908;1.870;2023-04-02T07:52:53;8.30;;;2.97;;
71360;SDS011;59166;48.908;1.870;2023-04-02T07:57:54;11.67;;;3.40;;
71360;SDS011;59166;48.908;1.870;2023-04-02T08:02:56;9.30;;;3.55;;
71360;SDS011;59166;48.908;1.870;2023-04-02T08:07:59;9.70;;;3.58;;
71360;SDS011;59166;48.908;1.870;2023-04-02T08:13:00;10.60;;;3.30;;
71360;SDS011;59166;48.908;1.870;2023-04-02T08:18:01;10.98;;;3.80;;
71360;SDS011;59166;48.908;1.870;2023-04-02T08:23:03;11.70;;;4.30;;
71360;SDS011;59166;48.908;1.870;2023-04-02T08:28:04;11.77;;;3.65;;
71360;SDS011;59166;48.908;1.870;2023-04-02T08:33:05;9.73;;;3.65;;
71360;SDS011;59166;48.908;1.870;2023-04-02T08:38:08;11.40;;;4.33;;
71360;SDS011;59166;48.908;1.870;2023-04-02T08:43:16;9.35;;;3.70;;
71360;SDS011;59166;48.908;1.870;2023-04-02T08:48:39;11.07;;;3.95;;
71360;SDS011;59166;48.908;1.870;2023-04-02T08:53:44;11.40;;;3.90;;
71360;SDS011;59166;48.908;1.870;2023-04-02T08:58:46;12.00;;;4.00;;
71360;SDS011;59166;48.908;1.870;2023-04-02T09:03:49;11.57;;;3.85;;
71360;SDS011;59166;48.908;1.870;2023-04-02T09:08:56;12.07;;;3.93;;
71360;SDS011;59166;48.908;1.870;2023-04-02T09:13:57;14.20;;;4.77;;
71360;SDS011;59166;48.908;1.870;2023-04-02T09:19:00;12.40;;;4.80;;
71360;SDS011;59166;48.908;1.870;2023-04-02T09:24:02;10.20;;;3.50;;
71360;SDS011;59166;48.908;1.870;2023-04-02T09:29:14;11.05;;;4.32;;
71360;SDS011;59166;48.908;1.870;2023-04-02T09:34:31;15.45;;;4.63;;
71360;SDS011;59166;48.908;1.870;2023-04-02T09:39:34;13.27;;;4.40;;
71360;SDS011;59166;48.908;1.870;2023-04-02T09:44:35;13.10;;;4.50;;
71360;SDS011;59166;48.908;1.870;2023-04-02T09:49:36;17.38;;;5.03;;
71360;SDS011;59166;48.908;1.870;2023-04-02T09:54:40;15.83;;;4.20;;
71360;SDS011;59166;48.908;1.870;2023-04-02T09:59:41;12.68;;;4.10;;
71360;SDS011;59166;48.908;1.870;2023-04-02T10:04:42;13.90;;;2.83;;
71360;SDS011;59166;48.908;1.870;2023-04-02T10:09:45;13.60;;;4.50;;
71360;SDS011;59166;48.908;1.870;2023-04-02T10:14:57;16.95;;;3.95;;
71360;SDS011;59166;48.908;1.870;2023-04-02T10:20:01;13.40;;;4.35;;
71360;SDS011;59166;48.908;1.870;2023-04-02T10:25:13;12.53;;;3.63;;
71360;SDS011;59166;48.908;1.870;2023-04-02T10:30:15;14.60;;;3.65;;
71360;SDS011;59166;48.908;1.870;2023-04-02T10:35:23;9.00;;;3.13;;
71360;SDS011;59166;48.908;1.870;2023-04-02T10:40:38;11.07;;;3.30;;
71360;SDS011;59166;48.908;1.870;2023-04-02T10:45:46;11.38;;;3.53;;
71360;SDS011;59166;48.908;1.870;2023-04-02T10:50:53;8.27;;;2.55;;
71360;SDS011;59166;48.908;1.870;2023-04-02T10:56:01;10.77;;;3.00;;
71360;SDS011;59166;48.908;1.870;2023-04-02T11:01:08;13.00;;;2.57;;
71360;SDS011;59166;48.908;1.870;2023-04-02T11:06:15;13.10;;;3.40;;
71360;SDS011;59166;48.908;1.870;2023-04-02T11:11:21;10.82;;;4.10;;
71360;SDS011;59166;48.908;1.870;2023-04-02T11:16:43;14.03;;;4.00;;
71360;SDS011;59166;48.908;1.870;2023-04-02T11:21:44;15.52;;;4.13;;
71360;SDS011;59166;48.908;1.870;2023-04-02T11:26:49;10.32;;;3.08;;
71360;SDS011;59166;48.908;1.870;2023-04-02T11:32:11;11.23;;;3.30;;
71360;SDS011;59166;48.908;1.870;2023-04-02T11:37:28;13.98;;;4.32;;
71360;SDS011;59166;48.908;1.870;2023-04-02T11:42:32;13.18;;;3.65;;
71360;SDS011;59166;48.908;1.870;2023-04-02T11:47:34;14.70;;;3.30;;
71360;SDS011;59166;48.908;1.870;2023-04-02T11:52:35;12.60;;;4.33;;
71360;SDS011;59166;48.908;1.870;2023-04-02T11:57:56;13.23;;;3.55;;
71360;SDS011;59166;48.908;1.870;2023-04-02T12:08:47;15.88;;;3.90;;
71360;SDS011;59166;48.908;1.870;2023-04-02T12:14:01;15.13;;;3.55;;
71360;SDS011;59166;48.908;1.870;2023-04-02T12:19:07;13.10;;;3.27;;
71360;SDS011;59166;48.908;1.870;2023-04-02T12:24:11;16.13;;;3.80;;
71360;SDS011;59166;48.908;1.870;2023-04-02T12:29:24;15.25;;;3.90;;
71360;SDS011;59166;48.908;1.870;2023-04-02T12:34:26;12.00;;;3.70;;
71360;SDS011;59166;48.908;1.870;2023-04-02T12:39:29;15.70;;;3.50;;
71360;SDS011;59166;48.908;1.870;2023-04-02T12:44:33;14.70;;;4.13;;
71360;SDS011;59166;48.908;1.870;2023-04-02T12:49:35;15.13;;;4.47;;
71360;SDS011;59166;48.908;1.870;2023-04-02T12:54:43;13.40;;;3.40;;
71360;SDS011;59166;48.908;1.870;2023-04-02T12:59:46;15.38;;;4.20;;
71360;SDS011;59166;48.908;1.870;2023-04-02T13:04:47;15.95;;;3.88;;
71360;SDS011;59166;48.908;1.870;2023-04-02T13:09:49;14.17;;;2.90;;
71360;SDS011;59166;48.908;1.870;2023-04-02T13:14:54;12.35;;;3.42;;
71360;SDS011;59166;48.908;1.870;2023-04-02T13:19:56;14.52;;;4.03;;
71360;SDS011;59166;48.908;1.870;2023-04-02T13:25:28;14.17;;;4.13;;
71360;SDS011;59166;48.908;1.870;2023-04-02T13:30:32;13.03;;;3.57;;
71360;SDS011;59166;48.908;1.870;2023-04-02T13:35:33;12.18;;;3.92;;
71360;SDS011;59166;48.908;1.870;2023-04-02T13:40:34;15.70;;;3.70;;
71360;SDS011;59166;48.908;1.870;2023-04-02T13:45:37;14.07;;;4.22;;
71360;SDS011;59166;48.908;1.870;2023-04-02T13:50:39;13.15;;;4.25;;
71360;SDS011;59166;48.908;1.870;2023-04-02T13:55:40;11.83;;;3.10;;
71360;SDS011;59166;48.908;1.870;2023-04-02T14:00:43;14.50;;;3.90;;
71360;SDS011;59166;48.908;1.870;2023-04-02T14:05:47;10.48;;;3.80;;
71360;SDS011;59166;48.908;1.870;2023-04-02T14:10:59;13.40;;;3.80;;
71360;SDS011;59166;48.908;1.870;2023-04-02T14:16:20;11.48;;;4.07;;
71360;SDS011;59166;48.908;1.870;2023-04-02T14:21:33;13.60;;;4.85;;
71360;SDS011;59166;48.908;1.870;2023-04-02T14:26:46;14.70;;;5.30;;
71360;SDS011;59166;48.908;1.870;2023-04-02T14:31:58;8.87;;;3.70;;
71360;SDS011;59166;48.908;1.870;2023-04-02T14:37:04;14.88;;;5.40;;
71360;SDS011;59166;48.908;1.870;2023-04-02T14:42:12;14.05;;;4.97;;
71360;SDS011;59166;48.908;1.870;2023-04-02T14:47:18;13.20;;;4.90;;
71360;SDS011;59166;48.908;1.870;2023-04-02T14:52:25;13.52;;;5.00;;
71360;SDS011;59166;48.908;1.870;2023-04-02T14:57:31;15.55;;;5.50;;
71360;SDS011;59166;48.908;1.870;2023-04-02T15:02:54;13.87;;;4.70;;
71360;SDS011;59166;48.908;1.870;2023-04-02T15:08:03;14.23;;;6.03;;
71360;SDS011;59166;48.908;1.870;2023-04-02T15:13:07;13.60;;;5.10;;
71360;SDS011;59166;48.908;1.870;2023-04-02T15:18:16;13.70;;;5.23;;
71360;SDS011;59166;48.908;1.870;2023-04-02T15:23:18;10.50;;;4.47;;
71360;SDS011;59166;48.908;1.870;2023-04-02T15:28:38;10.70;;;4.88;;
71360;SDS011;59166;48.908;1.870;2023-04-02T15:39:11;12.47;;;4.63;;
71360;SDS011;59166;48.908;1.870;2023-04-02T15:44:27;11.95;;;4.97;;
71360;SDS011;59166;48.908;1.870;2023-04-02T15:49:38;12.98;;;4.00;;
71360;SDS011;59166;48.908;1.870;2023-04-02T15:54:45;9.13;;;4.20;;
71360;SDS011;59166;48.908;1.870;2023-04-02T15:59:58;12.40;;;4.90;;
71360;SDS011;59166;48.908;1.870;2023-04-02T16:05:19;11.43;;;3.55;;
71360;SDS011;59166;48.908;1.870;2023-04-02T16:10:30;10.53;;;4.80;;
71360;SDS011;59166;48.908;1.870;2023-04-02T16:15:34;11.98;;;4.43;;
71360;SDS011;59166;48.908;1.870;2023-04-02T16:20:45;12.25;;;5.05;;
71360;SDS011;59166;48.908;1.870;2023-04-02T16:25:50;11.60;;;4.47;;
71360;SDS011;59166;48.908;1.870;2023-04-02T16:31:00;10.87;;;4.80;;
71360;SDS011;59166;48.908;1.870;2023-04-02T16:36:08;14.38;;;4.82;;
71360;SDS011;59166;48.908;1.870;2023-04-02T16:41:38;9.38;;;4.07;;
71360;SDS011;59166;48.908;1.870;2023-04-02T16:46:54;10.17;;;4.17;;
71360;SDS011;59166;48.908;1.870;2023-04-02T16:52:06;11.60;;;4.07;;
71360;SDS011;59166;48.908;1.870;2023-04-02T16:57:21;11.57;;;4.80;;
71360;SDS011;59166;48.908;1.870;2023-04-02T17:02:33;13.23;;;5.13;;
71360;SDS011;59166;48.908;1.870;2023-04-02T17:07:47;13.77;;;4.68;;
71360;SDS011;59166;48.908;1.870;2023-04-02T17:12:55;8.90;;;3.47;;
71360;SDS011;59166;48.908;1.870;2023-04-02T17:18:07;12.07;;;5.03;;
71360;SDS011;59166;48.908;1.870;2023-04-02T17:23:13;9.63;;;3.87;;
71360;SDS011;59166;48.908;1.870;2023-04-02T17:28:17;12.25;;;5.15;;
71360;SDS011;59166;48.908;1.870;2023-04-02T17:33:22;9.88;;;4.38;;
71360;SDS011;59166;48.908;1.870;2023-04-02T17:38:25;11.60;;;4.70;;
71360;SDS011;59166;48.908;1.870;2023-04-02T17:43:38;13.70;;;4.53;;
71360;SDS011;59166;48.908;1.870;2023-04-02T17:48:46;8.70;;;3.70;;
71360;SDS011;59166;48.908;1.870;2023-04-02T17:53:56;10.87;;;4.47;;
71360;SDS011;59166;48.908;1.870;2023-04-02T17:59:10;12.73;;;4.95;;
71360;SDS011;59166;48.908;1.870;2023-04-02T18:04:27;12.95;;;5.03;;
71360;SDS011;59166;48.908;1.870;2023-04-02T18:09:42;14.33;;;5.27;;
71360;SDS011;59166;48.908;1.870;2023-04-02T18:14:51;13.90;;;4.90;;
71360;SDS011;59166;48.908;1.870;2023-04-02T18:20:27;12.90;;;5.72;;
71360;SDS011;59166;48.908;1.870;2023-04-02T18:25:38;13.20;;;5.65;;
71360;SDS011;59166;48.908;1.870;2023-04-02T18:30:52;13.60;;;5.77;;
71360;SDS011;59166;48.908;1.870;2023-04-02T18:36:01;13.13;;;6.13;;
71360;SDS011;59166;48.908;1.870;2023-04-02T18:41:13;12.27;;;5.55;;
71360;SDS011;59166;48.908;1.870;2023-04-02T18:46:29;13.17;;;5.70;;
71360;SDS011;59166;48.908;1.870;2023-04-02T18:51:38;15.15;;;6.20;;
71360;SDS011;59166;48.908;1.870;2023-04-02T18:56:41;13.45;;;6.30;;
71360;SDS011;59166;48.908;1.870;2023-04-02T19:01:42;11.80;;;5.13;;
71360;SDS011;59166;48.908;1.870;2023-04-02T19:06:48;13.50;;;6.17;;
71360;SDS011;59166;48.908;1.870;2023-04-02T19:11:55;13.93;;;6.05;;
71360;SDS011;59166;48.908;1.870;2023-04-02T19:16:58;13.75;;;6.22;;
71360;SDS011;59166;48.908;1.870;2023-04-02T19:22:04;12.57;;;5.30;;
71360;SDS011;59166;48.908;1.870;2023-04-02T19:27:15;13.57;;;5.35;;
71360;SDS011;59166;48.908;1.870;2023-04-02T19:32:24;11.18;;;4.47;;
71360;SDS011;59166;48.908;1.870;2023-04-02T19:37:33;13.80;;;6.13;;
71360;SDS011;59166;48.908;1.870;2023-04-02T19:42:44;12.95;;;5.50;;
71360;SDS011;59166;48.908;1.870;2023-04-02T19:47:47;16.70;;;7.00;;
71360;SDS011;59166;48.908;1.870;2023-04-02T19:52:48;17.20;;;7.00;;
71360;SDS011;59166;48.908;1.870;2023-04-02T19:57:51;15.03;;;6.40;;
71360;SDS011;59166;48.908;1.870;2023-04-02T20:02:52;15.73;;;7.50;;
71360;SDS011;59166;48.908;1.870;2023-04-02T20:07:53;17.73;;;7.97;;
71360;SDS011;59166;48.908;1.870;2023-04-02T20:12:55;13.52;;;5.82;;
71360;SDS011;59166;48.908;1.870;2023-04-02T20:17:56;17.35;;;7.07;;
71360;SDS011;59166;48.908;1.870;2023-04-02T20:22:57;16.83;;;7.77;;
71360;SDS011;59166;48.908;1.870;2023-04-02T20:28:00;20.08;;;8.15;;
71360;SDS011;59166;48.908;1.870;2023-04-02T20:33:01;18.92;;;8.27;;
71360;SDS011;59166;48.908;1.870;2023-04-02T20:38:02;16.43;;;7.70;;
71360;SDS011;59166;48.908;1.870;2023-04-02T20:43:04;16.60;;;7.63;;
71360;SDS011;59166;48.908;1.870;2023-04-02T20:48:06;17.65;;;7.05;;
71360;SDS011;59166;48.908;1.870;2023-04-02T20:53:07;17.63;;;7.90;;
71360;SDS011;59166;48.908;1.870;2023-04-02T20:58:09;16.58;;;7.25;;
71360;SDS011;59166;48.908;1.870;2023-04-02T21:03:11;15.52;;;7.45;;
71360;SDS011;59166;48.908;1.870;2023-04-02T21:08:12;18.10;;;7.53;;
71360;SDS011;59166;48.908;1.870;2023-04-02T21:13:15;16.23;;;7.65;;
71360;SDS011;59166;48.908;1.870;2023-04-02T21:18:16;17.00;;;7.70;;
71360;SDS011;59166;48.908;1.870;2023-04-02T21:23:23;15.77;;;7.53;;
71360;SDS011;59166;48.908;1.870;2023-04-02T21:28:26;19.20;;;8.48;;
71360;SDS011;59166;48.908;1.870;2023-04-02T21:33:37;19.80;;;8.32;;
71360;SDS011;59166;48.908;1.870;2023-04-02T21:38:40;17.70;;;7.83;;
71360;SDS011;59166;48.908;1.870;2023-04-02T21:43:43;19.67;;;8.93;;
71360;SDS011;59166;48.908;1.870;2023-04-02T21:48:45;21.67;;;9.50;;
71360;SDS011;59166;48.908;1.870;2023-04-02T21:53:48;24.10;;;10.18;;
71360;SDS011;59166;48.908;1.870;2023-04-02T21:58:51;23.30;;;9.33;;
71360;SDS011;59166;48.908;1.870;2023-04-02T22:03:53;24.70;;;9.88;;
71360;SDS011;59166;48.908;1.870;2023-04-02T22:08:55;26.33;;;10.13;;
71360;SDS011;59166;48.908;1.870;2023-04-02T22:13:58;22.60;;;8.57;;
71360;SDS011;59166;48.908;1.870;2023-04-02T22:19:00;23.52;;;9.15;;
71360;SDS011;59166;48.908;1.870;2023-04-02T22:24:03;25.20;;;10.75;;
71360;SDS011;59166;48.908;1.870;2023-04-02T22:29:07;25.73;;;10.17;;
71360;SDS011;59166;48.908;1.870;2023-04-02T22:34:08;27.27;;;10.38;;
71360;SDS011;59166;48.908;1.870;2023-04-02T22:39:09;26.65;;;10.10;;
71360;SDS011;59166;48.908;1.870;2023-04-02T22:44:13;27.47;;;10.40;;
71360;SDS011;59166;48.908;1.870;2023-04-02T22:49:14;26.40;;;11.32;;
71360;SDS011;59166;48.908;1.870;2023-04-02T22:54:15;25.57;;;10.47;;
71360;SDS011;59166;48.908;1.870;2023-04-02T22:59:17;25.33;;;10.52;;
71360;SDS011;59166;48.908;1.870;2023-04-02T23:04:18;25.02;;;9.63;;
71360;SDS011;59166;48.908;1.870;2023-04-02T23:09:19;27.30;;;10.73;;
71360;SDS011;59166;48.908;1.870;2023-04-02T23:14:22;24.48;;;10.75;;
71360;SDS011;59166;48.908;1.870;2023-04-02T23:19:23;29.00;;;11.40;;
71360;SDS011;59166;48.908;1.870;2023-04-02T23:24:23;30.50;;;12.30;;
71360;SDS011;59166;48.908;1.870;2023-04-02T23:29:26;27.90;;;11.50;;
71360;SDS011;59166;48.908;1.870;2023-04-02T23:34:27;27.10;;;11.23;;
71360;SDS011;59166;48.908;1.870;2023-04-02T23:39:27;28.10;;;11.45;;
71360;SDS011;59166;48.908;1.870;2023-04-02T23:44:30;30.87;;;11.47;;
71360;SDS011;59166;48.908;1.870;2023-04-02T23:49:31;30.17;;;12.25;;
71360;SDS011;59166;48.908;1.870;2023-04-02T23:54:32;28.83;;;11.60;;
71360;SDS011;59166;48.908;1.870;2023-04-02T23:59:34;29.20;;;12.30;;
